Time;durP1;ratioP1;P1;durP2;ratioP2;P2;SDS_P1;SDS_P2;PMS_P1;PMS_P2;Temp;Humidity;BMP_temperature;BMP_pressure;BME280_temperature;BME280_humidity;BME280_pressure;Samples;Min_cycle;Max_cycle;Signal;HPM_P1;HPM_P2
2022/02/25 00:00:37;;;;;;;65.57;28.55;;;;;;;0.54;57.57;96953.91;1780917;79;25745;-89
2022/02/25 00:03:06;;;;;;;83.60;33.40;;;;;;;0.50;57.62;96958.36;1780565;79;25944;-86
2022/02/25 00:05:33;;;;;;;83.20;34.30;;;;;;;0.55;57.84;96963.54;1780800;78;25831;-88
2022/02/25 00:08:01;;;;;;;77.53;34.25;;;;;;;0.49;57.88;96960.17;1780809;79;25919;-87
2022/02/25 00:10:28;;;;;;;95.90;40.38;;;;;;;0.48;58.20;96953.73;1781008;79;26222;-87
2022/02/25 00:12:55;;;;;;;94.25;42.25;;;;;;;0.45;58.36;96958.02;1781018;79;26427;-89
2022/02/25 00:15:21;;;;;;;81.55;35.17;;;;;;;0.41;58.40;96952.68;1780900;79;27501;-87
2022/02/25 00:17:48;;;;;;;65.08;28.87;;;;;;;0.40;58.44;96947.03;1780828;79;25915;-88
2022/02/25 00:20:15;;;;;;;67.78;28.87;;;;;;;0.42;58.56;96938.42;1780835;79;25706;-89
2022/02/25 00:22:42;;;;;;;70.30;31.05;;;;;;;0.39;58.51;96934.25;1780890;79;26302;-88
2022/02/25 00:25:11;;;;;;;100.02;39.25;;;;;;;0.46;58.59;96937.11;1780921;79;25704;-89
2022/02/25 00:27:43;;;;;;;68.78;30.92;;;;;;;0.49;58.59;96938.94;1780953;79;27349;-89
2022/02/25 00:30:11;;;;;;;59.42;23.70;;;;;;;0.53;58.66;96938.13;1780999;79;25686;-90
2022/02/25 00:32:38;;;;;;;77.80;29.70;;;;;;;0.53;58.66;96943.44;1780631;79;25878;-90
2022/02/25 00:35:06;;;;;;;78.78;29.27;;;;;;;0.52;58.65;96940.45;1780788;79;26286;-89
2022/02/25 00:37:33;;;;;;;67.82;29.00;;;;;;;0.50;58.68;96938.44;1780513;79;25789;-89
2022/02/25 00:40:01;;;;;;;68.85;28.95;;;;;;;0.46;58.80;96926.00;1780188;79;26589;-89
2022/02/25 00:42:28;;;;;;;65.28;25.60;;;;;;;0.44;58.87;96924.48;1780776;79;25970;-89
2022/02/25 00:44:54;;;;;;;70.65;30.02;;;;;;;0.43;59.02;96924.15;1781045;79;25689;-89
2022/02/25 00:47:21;;;;;;;64.92;30.75;;;;;;;0.41;59.09;96921.65;1780919;79;25716;-89
2022/02/25 00:49:47;;;;;;;70.40;31.23;;;;;;;0.42;59.16;96921.16;1779975;79;25765;-88
2022/02/25 00:52:14;;;;;;;72.85;31.73;;;;;;;0.42;59.26;96925.14;1780922;79;27194;-90
2022/02/25 00:54:41;;;;;;;80.85;36.77;;;;;;;0.43;59.43;96930.79;1780920;79;25740;-89
2022/02/25 00:57:07;;;;;;;71.80;33.38;;;;;;;0.38;59.49;96917.14;1781000;79;25649;-89
2022/02/25 00:59:34;;;;;;;64.67;30.15;;;;;;;0.31;59.58;96916.47;1780991;79;25693;-90
2022/02/25 01:02:02;;;;;;;60.88;28.07;;;;;;;0.29;59.68;96917.13;1780921;79;25873;-90
2022/02/25 01:04:29;;;;;;;67.72;29.32;;;;;;;0.29;59.71;96925.09;1780889;79;28169;-87
2022/02/25 01:06:55;;;;;;;63.17;28.60;;;;;;;0.30;59.84;96912.64;1785114;78;25855;-89
2022/02/25 01:09:23;;;;;;;56.83;25.88;;;;;;;0.31;59.83;96896.56;1789822;79;25756;-89
2022/02/25 01:11:50;;;;;;;56.28;25.32;;;;;;;0.39;59.82;96896.25;1789918;78;26485;-89
2022/02/25 01:14:16;;;;;;;48.25;22.22;;;;;;;0.44;59.85;96903.25;1789766;78;25812;-89
2022/02/25 01:16:43;;;;;;;40.58;18.52;;;;;;;0.48;59.71;96906.77;1791406;78;28172;-90
2022/02/25 01:19:10;;;;;;;45.30;19.23;;;;;;;0.51;59.65;96897.61;1789702;78;25657;-88
2022/02/25 01:21:36;;;;;;;48.55;20.55;;;;;;;0.52;59.70;96913.39;1789741;79;25740;-88
2022/02/25 01:24:03;;;;;;;41.88;17.42;;;;;;;0.53;59.86;96908.91;1789711;78;25827;-88
2022/02/25 01:26:31;;;;;;;42.23;18.17;;;;;;;0.48;59.87;96905.92;1789835;78;25552;-89
2022/02/25 01:28:57;;;;;;;40.70;17.98;;;;;;;0.43;59.96;96896.27;1789688;79;27430;-89
2022/02/25 01:31:24;;;;;;;35.73;18.15;;;;;;;0.42;60.03;96898.09;1789552;79;26336;-89
2022/02/25 01:33:51;;;;;;;47.38;21.25;;;;;;;0.47;60.15;96894.97;1789703;79;26423;-89
2022/02/25 01:36:17;;;;;;;46.92;19.70;;;;;;;0.49;60.25;96891.63;1789745;78;25822;-90
2022/02/25 01:38:44;;;;;;;38.28;16.17;;;;;;;0.52;60.31;96883.34;1789841;78;25681;-87
2022/02/25 01:41:10;;;;;;;33.55;14.65;;;;;;;0.52;60.50;96889.48;1789777;78;27525;-89
2022/02/25 01:43:37;;;;;;;33.58;14.20;;;;;;;0.57;60.32;96878.39;1789622;78;25772;-88
2022/02/25 01:46:04;;;;;;;36.75;15.60;;;;;;;0.66;60.30;96877.41;1789866;79;25789;-89
2022/02/25 01:48:31;;;;;;;39.45;17.27;;;;;;;0.71;60.33;96871.13;1789786;78;25777;-89
2022/02/25 01:50:58;;;;;;;40.78;16.07;;;;;;;0.76;60.27;96866.14;1789769;78;25676;-88
2022/02/25 01:53:26;;;;;;;33.15;14.87;;;;;;;0.83;60.29;96861.85;1789821;80;28140;-87
2022/02/25 01:55:52;;;;;;;30.37;14.28;;;;;;;0.93;60.06;96861.20;1789680;78;25809;-89
2022/02/25 01:58:19;;;;;;;26.52;12.95;;;;;;;1.00;59.98;96852.88;1789763;79;25784;-88
2022/02/25 02:00:46;;;;;;;29.07;13.03;;;;;;;1.05;59.89;96843.92;1789291;79;25891;-88
2022/02/25 02:03:13;;;;;;;30.60;13.10;;;;;;;1.09;59.76;96837.27;1789723;79;26368;-88
2022/02/25 02:05:39;;;;;;;32.03;13.20;;;;;;;1.15;59.69;96841.09;1789846;78;28122;-89
2022/02/25 02:08:06;;;;;;;35.30;13.90;;;;;;;1.23;59.61;96833.11;1781892;78;25766;-87
2022/02/25 02:10:33;;;;;;;25.68;11.10;;;;;;;1.28;59.51;96822.81;1780827;79;25697;-89
2022/02/25 02:12:59;;;;;;;26.20;10.85;;;;;;;1.32;59.50;96817.50;1780878;79;25805;-89
2022/02/25 02:15:26;;;;;;;22.55;9.65;;;;;;;1.37;59.45;96818.31;1780912;79;25727;-88
2022/02/25 02:17:53;;;;;;;15.43;7.12;;;;;;;1.44;59.32;96819.31;1780779;79;27343;-88
2022/02/25 02:20:19;;;;;;;19.77;8.55;;;;;;;1.53;59.25;96827.60;1780747;79;25693;-89
2022/02/25 02:22:46;;;;;;;14.13;6.45;;;;;;;1.64;59.13;96828.58;1780884;79;25648;-89
2022/02/25 02:25:13;;;;;;;14.58;7.40;;;;;;;1.74;58.97;96834.53;1780787;79;25871;-88
2022/02/25 02:30:25;;;;;;;19.73;7.85;;;;;;;2.02;58.69;96828.80;1780501;79;28234;-90
2022/02/25 02:32:52;;;;;;;12.85;5.17;;;;;;;2.16;58.60;96838.73;1780812;79;25860;-89
2022/02/25 02:35:18;;;;;;;16.40;7.58;;;;;;;2.32;58.36;96824.00;1780907;79;25719;-88
2022/02/25 02:37:45;;;;;;;17.42;6.90;;;;;;;2.57;58.09;96835.35;1779720;79;25775;-89
2022/02/25 02:40:12;;;;;;;14.10;6.80;;;;;;;2.66;57.82;96829.46;1810239;77;25607;-89
2022/02/25 02:42:38;;;;;;;13.72;7.15;;;;;;;2.75;57.61;96837.76;1813005;77;27393;-88
2022/02/25 02:45:06;;;;;;;18.02;7.70;;;;;;;2.83;57.52;96839.03;1812910;77;25729;-87
2022/02/25 02:47:33;;;;;;;15.40;5.42;;;;;;;2.88;57.30;96844.67;1813189;79;25906;-89
2022/02/25 02:49:59;;;;;;;12.00;4.62;;;;;;;2.94;57.08;96845.28;1812984;78;25894;-87
2022/02/25 02:52:26;;;;;;;10.65;4.75;;;;;;;3.12;56.93;96831.66;1813063;79;25286;-88
2022/02/25 02:54:53;;;;;;;9.90;4.20;;;;;;;3.32;56.55;96838.66;1813073;77;28169;-88
2022/02/25 02:57:22;;;;;;;10.80;3.98;;;;;;;3.42;56.31;96826.72;1812976;79;25849;-85
2022/02/25 02:59:49;;;;;;;12.65;4.55;;;;;;;3.53;56.06;96826.78;1812940;78;25622;-86
2022/02/25 03:02:16;;;;;;;14.98;5.10;;;;;;;3.69;55.79;96827.14;1813079;79;25869;-86
2022/02/25 03:04:42;;;;;;;10.75;4.67;;;;;;;3.88;55.46;96831.43;1813019;77;25758;-87
2022/02/25 03:07:10;;;;;;;8.93;4.37;;;;;;;4.02;55.15;96831.11;1812901;77;27326;-86
2022/02/25 03:09:38;;;;;;;11.60;4.60;;;;;;;4.13;54.79;96836.49;1812667;77;25767;-87
2022/02/25 03:12:05;;;;;;;8.03;4.00;;;;;;;4.20;54.55;96829.42;1812962;78;25774;-86
2022/02/25 03:14:32;;;;;;;13.75;4.53;;;;;;;4.29;54.26;96837.64;1812831;77;25892;-86
2022/02/25 03:16:59;;;;;;;8.45;4.10;;;;;;;4.38;53.99;96833.02;1812703;77;25753;-88
2022/02/25 03:19:26;;;;;;;8.78;4.33;;;;;;;4.42;53.76;96839.16;1813056;77;27407;-87
2022/02/25 03:21:53;;;;;;;9.85;4.53;;;;;;;4.48;53.61;96833.55;1812864;77;25621;-88
2022/02/25 03:24:19;;;;;;;12.53;4.78;;;;;;;4.53;53.32;96829.31;1813148;77;25725;-87
2022/02/25 03:26:46;;;;;;;10.95;4.78;;;;;;;4.60;53.19;96834.73;1813041;77;25808;-87
2022/02/25 03:29:12;;;;;;;14.50;5.25;;;;;;;4.63;52.90;96837.86;1812190;77;25653;-86
2022/02/25 03:31:39;;;;;;;8.78;5.37;;;;;;;4.67;52.81;96832.98;1813008;77;27504;-87
2022/02/25 03:34:05;;;;;;;13.60;4.97;;;;;;;4.70;52.60;96841.97;1812994;77;25238;-86
2022/02/25 03:36:32;;;;;;;15.08;5.25;;;;;;;4.74;52.45;96843.23;1813095;77;25317;-83
2022/02/25 03:38:59;;;;;;;10.90;4.87;;;;;;;4.75;52.48;96851.57;1811930;77;25736;-88
2022/02/25 03:41:25;;;;;;;10.60;4.83;;;;;;;4.78;52.26;96847.19;1812979;77;25681;-89
2022/02/25 03:43:52;;;;;;;8.83;4.28;;;;;;;4.80;52.08;96843.00;1813031;77;27338;-88
2022/02/25 03:46:19;;;;;;;12.82;4.67;;;;;;;4.81;52.00;96850.00;1812938;77;25704;-88
2022/02/25 03:48:46;;;;;;;11.10;4.78;;;;;;;4.82;51.84;96843.64;1812963;77;25746;-87
2022/02/25 03:51:12;;;;;;;11.05;4.95;;;;;;;4.83;51.76;96839.95;1812889;77;25917;-86
2022/02/25 03:53:39;;;;;;;13.05;5.85;;;;;;;4.83;51.70;96842.62;1812701;77;25698;-85
2022/02/25 03:56:05;;;;;;;12.68;5.12;;;;;;;4.79;51.66;96846.17;1812983;78;27585;-87
2022/02/25 03:58:32;;;;;;;8.15;4.22;;;;;;;4.74;51.63;96850.42;1812842;77;25749;-86
2022/02/25 04:00:59;;;;;;;11.12;4.80;;;;;;;4.76;51.50;96841.70;1813015;77;25777;-82
2022/02/25 04:03:25;;;;;;;11.50;5.17;;;;;;;4.77;51.46;96846.03;1812283;77;25709;-82
2022/02/25 04:05:52;;;;;;;15.58;5.05;;;;;;;4.70;51.50;96854.83;1813248;77;25788;-84
2022/02/25 04:08:18;;;;;;;10.60;5.20;;;;;;;4.65;51.61;96851.88;1812865;78;27499;-82
2022/02/25 04:10:45;;;;;;;12.33;4.72;;;;;;;4.58;51.57;96863.01;1813087;78;25308;-85
2022/02/25 04:13:12;;;;;;;17.90;5.37;;;;;;;4.54;51.53;96856.37;1813154;77;25712;-84
2022/02/25 04:15:39;;;;;;;9.53;5.28;;;;;;;4.49;51.65;96854.75;1813085;77;26477;-83
2022/02/25 04:18:05;;;;;;;10.75;4.80;;;;;;;4.43;51.61;96860.86;1813108;77;25737;-84
2022/02/25 04:20:32;;;;;;;15.25;4.70;;;;;;;4.40;51.59;96857.21;1813119;77;27288;-83
2022/02/25 04:22:59;;;;;;;11.85;5.03;;;;;;;4.39;51.57;96860.89;1813162;77;25723;-84
2022/02/25 04:25:26;;;;;;;14.45;5.35;;;;;;;4.38;51.53;96856.56;1813093;77;25748;-83
2022/02/25 04:27:52;;;;;;;15.45;6.20;;;;;;;4.38;51.50;96863.24;1813142;77;25732;-85
2022/02/25 04:30:19;;;;;;;11.80;5.55;;;;;;;4.34;51.52;96866.81;1813169;78;25760;-84
2022/02/25 04:32:46;;;;;;;11.95;5.50;;;;;;;4.32;51.50;96861.33;1813161;77;27431;-85
2022/02/25 04:35:13;;;;;;;11.05;5.78;;;;;;;4.33;51.54;96858.98;1812953;77;26322;-83
2022/02/25 04:37:40;;;;;;;12.60;5.30;;;;;;;4.31;51.47;96859.67;1812740;77;25771;-88
2022/02/25 04:40:09;;;;;;;15.23;5.92;;;;;;;4.21;51.55;96864.47;1813012;77;26690;-88
2022/02/25 04:42:36;;;;;;;18.73;6.42;;;;;;;4.14;51.69;96860.86;1812985;77;25777;-88
2022/02/25 04:45:03;;;;;;;16.70;6.78;;;;;;;4.09;51.84;96868.11;1812863;78;27456;-84
2022/02/25 04:47:29;;;;;;;18.57;6.37;;;;;;;4.02;51.87;96865.00;1812967;77;25648;-84
2022/02/25 04:49:56;;;;;;;12.37;5.85;;;;;;;3.95;52.03;96860.41;1812998;77;26021;-84
2022/02/25 04:52:24;;;;;;;15.90;5.95;;;;;;;3.91;52.14;96876.97;1813034;77;26360;-86
2022/02/25 04:54:51;;;;;;;11.15;5.35;;;;;;;3.86;52.22;96874.86;1813041;79;25888;-88
2022/02/25 04:57:17;;;;;;;15.35;5.97;;;;;;;3.81;52.35;96881.23;1812891;77;27566;-84
2022/02/25 04:59:44;;;;;;;10.78;5.05;;;;;;;3.73;52.47;96888.00;1812998;77;25740;-87
2022/02/25 05:02:10;;;;;;;14.28;6.05;;;;;;;3.65;52.59;96896.56;1813002;79;25733;-85
2022/02/25 05:04:37;;;;;;;12.15;5.37;;;;;;;3.57;52.76;96892.97;1813000;78;26434;-85
2022/02/25 05:07:04;;;;;;;19.80;5.58;;;;;;;3.52;52.90;96885.17;1813028;77;25709;-87
2022/02/25 05:09:30;;;;;;;11.10;5.40;;;;;;;3.46;53.04;96897.91;1821343;77;27424;-85
2022/02/25 05:11:57;;;;;;;11.85;5.75;;;;;;;3.39;53.15;96894.28;1821343;77;25709;-84
2022/02/25 05:22:40;;;;;;;18.27;8.88;;;;;;;3.04;53.81;96907.70;1821657;77;27417;-86
2022/02/25 05:25:07;;;;;;;14.87;7.47;;;;;;;2.85;53.93;96911.16;1821415;77;26089;-89
2022/02/25 05:27:34;;;;;;;14.60;7.10;;;;;;;2.84;54.22;96912.66;1821690;77;25677;-86
2022/02/25 05:30:00;;;;;;;11.70;6.45;;;;;;;2.75;54.21;96899.89;1817140;77;25795;-86
2022/02/25 05:32:27;;;;;;;16.17;6.97;;;;;;;2.69;54.38;96918.39;1809635;77;25790;-86
2022/02/25 05:34:54;;;;;;;14.23;6.83;;;;;;;2.66;54.56;96919.56;1816532;77;27382;-87
2022/02/25 05:37:20;;;;;;;19.70;7.97;;;;;;;2.67;54.90;96927.89;1821801;77;25772;-88
2022/02/25 05:39:47;;;;;;;17.85;9.50;;;;;;;2.61;54.82;96927.77;1848366;77;25678;-85
2022/02/25 05:42:13;;;;;;;17.92;10.05;;;;;;;2.64;54.92;96932.77;1827561;77;27440;-86
2022/02/25 05:44:40;;;;;;;24.23;12.13;;;;;;;2.64;55.01;96926.93;1811130;77;26397;-87
2022/02/25 05:47:06;;;;;;;27.22;14.05;;;;;;;2.67;55.18;96927.06;1797838;77;27411;-88
2022/02/25 05:49:33;;;;;;;26.60;13.13;;;;;;;2.64;55.13;96919.44;1789140;78;25784;-87
2022/02/25 05:52:00;;;;;;;18.80;11.12;;;;;;;2.64;55.37;96930.09;1804801;78;25658;-87
2022/02/25 05:54:26;;;;;;;26.82;12.23;;;;;;;2.68;55.76;96926.06;1821523;77;25679;-85
2022/02/25 05:56:53;;;;;;;25.90;12.47;;;;;;;2.66;55.61;96940.05;1807971;77;26347;-87
2022/02/25 05:59:19;;;;;;;32.28;12.93;;;;;;;2.62;55.72;96940.09;1821646;77;27509;-87
2022/02/25 06:01:46;;;;;;;29.23;12.43;;;;;;;2.58;55.86;96944.92;1816692;77;25791;-87
2022/02/25 06:04:13;;;;;;;26.60;11.83;;;;;;;2.57;55.94;96946.42;1816532;78;25707;-86
2022/02/25 06:06:39;;;;;;;19.57;11.35;;;;;;;2.44;56.23;96948.30;1807670;78;25842;-86
2022/02/25 06:09:06;;;;;;;24.23;12.88;;;;;;;2.37;56.24;96942.84;1788605;78;25783;-86
2022/02/25 06:11:32;;;;;;;25.90;12.28;;;;;;;2.42;56.45;96941.81;1808244;77;27339;-87
2022/02/25 06:13:59;;;;;;;27.30;12.73;;;;;;;2.44;56.58;96943.81;1812557;77;25773;-87
2022/02/25 06:16:26;;;;;;;33.33;12.63;;;;;;;2.48;56.87;96953.13;1812702;77;26681;-86
2022/02/25 06:18:52;;;;;;;29.20;12.82;;;;;;;2.43;57.05;96960.80;1803398;79;25766;-86
2022/02/25 06:21:19;;;;;;;29.55;13.48;;;;;;;2.46;57.18;96961.79;1802271;79;25709;-86
2022/02/25 06:23:45;;;;;;;24.77;11.95;;;;;;;2.50;57.35;96972.44;1803671;77;27417;-86
2022/02/25 06:26:12;;;;;;;24.67;13.10;;;;;;;2.50;57.34;96972.44;1808081;77;25933;-87
2022/02/25 06:28:39;;;;;;;23.40;12.55;;;;;;;2.52;57.44;96975.77;1807979;77;25728;-87
2022/02/25 06:31:06;;;;;;;25.50;12.78;;;;;;;2.53;57.48;96977.44;1800829;78;26648;-88
2022/02/25 06:33:32;;;;;;;21.75;11.35;;;;;;;2.58;57.56;96976.06;1802699;77;25650;-88
2022/02/25 06:35:59;;;;;;;21.30;9.30;;;;;;;2.67;57.34;96983.02;1806076;78;26862;-87
2022/02/25 06:38:26;;;;;;;12.33;6.92;;;;;;;2.80;57.12;96981.98;1822015;77;26471;-86
2022/02/25 06:40:53;;;;;;;26.27;9.60;;;;;;;3.00;56.83;96989.91;1812932;77;25721;-86
2022/02/25 06:43:20;;;;;;;15.93;7.72;;;;;;;3.17;56.65;96996.80;1812980;78;25846;-86
2022/02/25 06:45:46;;;;;;;16.27;7.55;;;;;;;3.35;56.36;96991.70;1813046;77;25707;-86
2022/02/25 06:48:13;;;;;;;16.97;8.15;;;;;;;3.55;56.16;96991.56;1812903;77;27410;-88
2022/02/25 06:50:40;;;;;;;15.10;6.87;;;;;;;3.73;55.90;96990.78;1812992;77;25707;-88
2022/02/25 06:53:06;;;;;;;16.05;6.95;;;;;;;3.87;55.63;96991.30;1813025;77;25728;-86
2022/02/25 06:55:33;;;;;;;14.15;7.75;;;;;;;4.00;55.42;96990.70;1813181;77;26678;-87
2022/02/25 06:58:02;;;;;;;17.17;7.08;;;;;;;4.12;55.12;96994.59;1813187;77;25196;-87
2022/02/25 07:00:29;;;;;;;17.27;6.87;;;;;;;4.24;54.99;96993.65;1813142;77;28170;-86
2022/02/25 07:02:56;;;;;;;13.85;7.45;;;;;;;4.32;54.72;96994.42;1813040;77;25883;-88
2022/02/25 07:05:22;;;;;;;14.23;7.50;;;;;;;4.40;54.54;97002.86;1813023;77;25673;-87
2022/02/25 07:07:49;;;;;;;13.75;7.55;;;;;;;4.47;54.35;97014.46;1809195;77;25682;-88
2022/02/25 07:10:17;;;;;;;15.48;8.10;;;;;;;4.53;54.18;97019.09;1809792;77;25824;-87
2022/02/25 07:12:45;;;;;;;16.02;8.43;;;;;;;4.59;54.00;97033.05;1813035;77;27378;-87
2022/02/25 07:15:11;;;;;;;22.87;11.55;;;;;;;4.64;53.84;97034.67;1812770;77;25654;-88
2022/02/25 07:17:38;;;;;;;33.13;15.85;;;;;;;4.66;53.70;97033.99;1836725;77;25696;-87
2022/02/25 07:20:08;;;;;;;37.28;19.25;;;;;;;4.71;53.58;97040.11;1846080;76;26525;-88
2022/02/25 07:22:35;;;;;;;34.25;17.15;;;;;;;4.75;53.47;97032.05;1846398;77;25781;-88
2022/02/25 07:25:02;;;;;;;23.77;11.83;;;;;;;4.80;53.39;97042.20;1846426;77;27604;-87
2022/02/25 07:27:28;;;;;;;19.98;10.80;;;;;;;4.84;53.27;97059.02;1846180;76;25799;-87
2022/02/25 07:29:55;;;;;;;20.27;8.48;;;;;;;4.89;53.18;97053.97;1846375;76;25651;-87
2022/02/25 07:32:23;;;;;;;20.20;10.68;;;;;;;4.94;53.04;97069.47;1846369;76;25706;-86
2022/02/25 07:34:50;;;;;;;15.95;8.03;;;;;;;4.97;53.03;97078.44;1827296;77;25774;-87
2022/02/25 07:37:17;;;;;;;34.83;15.65;;;;;;;4.99;52.99;97084.44;1781820;79;27599;-89
2022/02/25 07:39:43;;;;;;;32.40;15.75;;;;;;;5.02;52.97;97085.42;1781085;79;25706;-88
2022/02/25 07:42:10;;;;;;;34.43;18.25;;;;;;;5.07;52.95;97096.41;1780926;79;25707;-88
2022/02/25 07:44:36;;;;;;;16.55;8.85;;;;;;;5.10;53.02;97100.54;1780974;79;25911;-88
2022/02/25 07:47:03;;;;;;;15.68;7.53;;;;;;;5.12;53.16;97087.30;1814444;77;26226;-89
2022/02/25 07:49:30;;;;;;;12.25;7.03;;;;;;;5.16;53.23;97095.30;1840471;77;28357;-89
2022/02/25 07:51:57;;;;;;;14.20;6.60;;;;;;;5.20;53.58;97113.95;1813066;77;25793;-89
2022/02/25 07:54:25;;;;;;;16.40;6.90;;;;;;;5.20;54.04;97121.98;1837889;77;25620;-88
2022/02/25 07:56:52;;;;;;;10.88;6.22;;;;;;;5.21;54.44;97127.66;1846302;77;25939;-87
2022/02/25 07:59:18;;;;;;;15.70;7.15;;;;;;;5.21;54.85;97137.53;1846482;77;25737;-87
2022/02/25 08:01:45;;;;;;;11.93;6.42;;;;;;;5.19;54.84;97140.93;1846415;76;27379;-90
2022/02/25 08:04:12;;;;;;;13.62;6.78;;;;;;;5.02;56.09;97143.77;1846166;76;25703;-88
2022/02/25 08:06:42;;;;;;;20.80;7.75;;;;;;;4.81;57.73;97157.52;1846300;77;25642;-89
2022/02/25 08:09:07;;;;;;;12.78;6.78;;;;;;;4.67;58.18;97168.00;1845887;76;26545;-87
2022/02/25 08:11:33;;;;;;;12.00;7.12;;;;;;;4.54;58.86;97171.78;1846300;77;26185;-88
2022/02/25 08:14:00;;;;;;;11.97;5.95;;;;;;;4.40;60.03;97185.91;1846110;77;27423;-87
2022/02/25 08:16:27;;;;;;;7.60;4.33;;;;;;;4.23;60.47;97205.72;1846333;77;25260;-87
2022/02/25 08:18:53;;;;;;;4.47;3.27;;;;;;;4.00;60.84;97207.02;1846384;76;25676;-87
2022/02/25 08:21:20;;;;;;;4.65;2.80;;;;;;;3.79;61.24;97214.31;1846443;76;25842;-86
2022/02/25 08:23:46;;;;;;;6.05;2.70;;;;;;;3.71;61.67;97232.21;1846410;77;25776;-85
2022/02/25 08:26:13;;;;;;;3.12;2.47;;;;;;;3.65;62.10;97245.73;1846463;77;28180;-83
2022/02/25 08:28:40;;;;;;;3.02;2.25;;;;;;;3.55;62.19;97251.77;1846489;76;25651;-86
2022/02/25 08:31:12;;;;;;;3.72;2.12;;;;;;;3.51;62.47;97251.77;1846457;77;25806;-86
2022/02/25 08:33:35;;;;;;;3.80;2.52;;;;;;;3.43;62.59;97249.97;1843907;77;25867;-87
2022/02/25 08:36:01;;;;;;;3.42;1.85;;;;;;;3.39;62.80;97262.47;1846405;77;25670;-87
2022/02/25 08:38:28;;;;;;;2.30;1.77;;;;;;;3.31;62.79;97266.00;1846309;76;27507;-87
2022/02/25 08:40:54;;;;;;;2.40;1.80;;;;;;;3.17;63.30;97256.84;1822577;77;25959;-87
2022/02/25 08:43:21;;;;;;;2.37;1.82;;;;;;;3.05;63.70;97278.19;1804217;79;25753;-87
2022/02/25 08:45:48;;;;;;;3.17;2.30;;;;;;;2.96;64.09;97268.53;1808611;79;25885;-87
2022/02/25 08:48:14;;;;;;;3.22;2.47;;;;;;;2.84;65.01;97266.70;1799905;77;26189;-88
2022/02/25 08:50:42;;;;;;;4.35;2.90;;;;;;;2.78;65.41;97278.52;1780065;79;27558;-87
2022/02/25 08:53:09;;;;;;;3.22;2.47;;;;;;;2.76;65.14;97279.20;1809615;77;26196;-84
2022/02/25 08:55:36;;;;;;;2.55;2.10;;;;;;;2.77;65.69;97280.87;1800391;78;25748;-88
2022/02/25 08:58:03;;;;;;;3.35;2.37;;;;;;;2.80;65.87;97283.19;1812128;77;25883;-85
2022/02/25 09:00:30;;;;;;;3.70;2.70;;;;;;;2.75;65.81;97281.53;1807869;77;25790;-87
2022/02/25 09:02:56;;;;;;;4.20;2.40;;;;;;;2.75;66.19;97286.87;1812406;77;27962;-87
2022/02/25 09:05:25;;;;;;;2.60;2.33;;;;;;;2.78;66.25;97289.18;1796981;77;25703;-87
2022/02/25 09:07:53;;;;;;;4.10;2.50;;;;;;;2.77;66.67;97292.88;1793598;77;25767;-87
2022/02/25 09:10:22;;;;;;;2.70;1.95;;;;;;;2.80;66.39;97291.19;1811274;77;26353;-87
2022/02/25 09:12:49;;;;;;;2.60;1.98;;;;;;;2.85;66.53;97292.37;1812571;79;25661;-86
2022/02/25 09:15:22;;;;;;;5.58;2.62;;;;;;;2.88;66.29;97297.88;1784972;78;27397;-86
2022/02/25 09:17:52;;;;;;;7.62;2.90;;;;;;;2.92;66.44;97299.19;1792796;77;26026;-87
2022/02/25 09:20:22;;;;;;;7.00;3.33;;;;;;;2.96;66.31;97303.20;1768934;79;25774;-86
2022/02/25 09:22:50;;;;;;;10.85;3.90;;;;;;;2.99;66.58;97305.55;1802800;77;26038;-88
2022/02/25 09:25:17;;;;;;;8.40;3.40;;;;;;;3.01;66.28;97314.22;1797279;79;25756;-86
2022/02/25 09:27:44;;;;;;;8.80;3.17;;;;;;;2.99;66.55;97309.55;1785691;79;28229;-87
2022/02/25 09:30:14;;;;;;;6.58;2.17;;;;;;;2.98;66.58;97318.53;1810554;77;25814;-87
2022/02/25 09:32:42;;;;;;;6.35;3.22;;;;;;;3.01;66.26;97326.21;1789466;77;25789;-87
2022/02/25 09:35:10;;;;;;;7.45;3.60;;;;;;;3.03;66.35;97329.52;1812621;79;26399;-87
2022/02/25 09:37:36;;;;;;;4.87;3.00;;;;;;;3.06;66.34;97327.86;1803861;77;25695;-89
2022/02/25 09:40:08;;;;;;;4.15;2.80;;;;;;;3.03;66.05;97324.19;1833767;77;27987;-87
2022/02/25 09:42:38;;;;;;;4.28;3.10;;;;;;;2.99;66.26;97330.88;1846096;77;26993;-88
2022/02/25 09:45:08;;;;;;;5.15;3.05;;;;;;;2.99;66.29;97336.20;1846248;76;25664;-86
2022/02/25 09:47:35;;;;;;;5.17;3.12;;;;;;;2.94;66.42;97341.19;1846243;76;25764;-86
2022/02/25 09:50:05;;;;;;;4.08;2.70;;;;;;;2.95;66.64;97348.69;1846298;76;25785;-86
2022/02/25 09:52:35;;;;;;;3.77;2.62;;;;;;;2.96;66.68;97341.86;1846203;76;27429;-86
2022/02/25 09:55:08;;;;;;;3.55;2.75;;;;;;;2.99;66.47;97351.38;1846114;77;25681;-87
2022/02/25 09:57:35;;;;;;;6.22;3.62;;;;;;;2.97;66.50;97354.20;1844461;77;25741;-88
2022/02/25 10:00:03;;;;;;;7.53;4.22;;;;;;;2.94;66.40;97351.02;1846256;77;25662;-86
2022/02/25 10:02:46;;;;;;;8.68;4.10;;;;;;;2.87;66.50;97359.69;1845806;77;25675;-86
2022/02/25 10:05:23;;;;;;;5.97;3.45;;;;;;;2.77;66.49;97359.52;1846239;76;27404;-86
2022/02/25 10:07:50;;;;;;;6.25;3.85;;;;;;;2.74;66.69;97351.83;1824643;77;25741;-86
2022/02/25 10:10:20;;;;;;;5.62;3.72;;;;;;;2.72;66.46;97358.66;1834502;77;25241;-87
2022/02/25 10:12:57;;;;;;;6.17;3.52;;;;;;;2.73;66.49;97359.48;1835918;76;26523;-86
2022/02/25 10:15:35;;;;;;;8.55;4.37;;;;;;;2.75;66.52;97359.67;1846225;76;25698;-87
2022/02/25 10:18:19;;;;;;;9.05;4.83;;;;;;;2.73;66.69;97358.99;1815418;77;27440;-86
2022/02/25 10:20:47;;;;;;;9.58;5.45;;;;;;;2.76;66.73;97355.17;1839437;77;25279;-86
2022/02/25 10:23:25;;;;;;;8.03;5.30;;;;;;;2.82;66.83;97358.50;1846137;76;25730;-86
2022/02/25 10:25:55;;;;;;;6.53;3.85;;;;;;;2.89;66.79;97360.86;1838860;76;26337;-85
2022/02/25 10:28:32;;;;;;;6.25;3.92;;;;;;;2.92;66.59;97360.52;1774884;80;25716;-88
2022/02/25 10:31:22;;;;;;;5.05;3.80;;;;;;;3.02;66.69;97371.05;1845535;76;27534;-86
2022/02/25 10:34:05;;;;;;;12.90;5.83;;;;;;;3.01;66.56;97360.05;1786677;79;25844;-86
2022/02/25 10:36:46;;;;;;;6.47;3.35;;;;;;;3.02;66.38;97359.85;1757687;80;26405;-86
2022/02/25 10:39:25;;;;;;;6.53;3.62;;;;;;;3.11;66.34;97365.55;1801144;77;25806;-86
2022/02/25 10:42:13;;;;;;;6.17;3.83;;;;;;;3.20;66.21;97370.38;1832489;76;25734;-85
2022/02/25 10:44:57;;;;;;;6.62;3.52;;;;;;;3.26;66.39;97377.20;1831682;77;27405;-84
2022/02/25 10:47:30;;;;;;;5.65;3.08;;;;;;;3.22;65.90;97383.89;1793967;79;26465;-84
2022/02/25 10:50:17;;;;;;;5.37;3.45;;;;;;;3.17;66.08;97386.70;1812419;77;26498;-84
2022/02/25 10:52:48;;;;;;;5.60;3.05;;;;;;;3.23;65.97;97388.23;1835546;76;25794;-85
2022/02/25 10:55:21;;;;;;;8.28;3.52;;;;;;;3.32;65.89;97398.89;1845660;77;25659;-85
2022/02/25 10:57:49;;;;;;;5.75;3.50;;;;;;;3.37;65.72;97396.58;1846213;77;27410;-86
2022/02/25 11:00:18;;;;;;;8.15;4.67;;;;;;;3.30;65.61;97395.06;1761833;80;25797;-85
2022/02/25 11:02:47;;;;;;;6.00;3.98;;;;;;;3.24;65.82;97389.91;1846057;77;26463;-84
2022/02/25 11:05:21;;;;;;;7.25;4.35;;;;;;;3.24;65.82;97391.73;1820743;77;26707;-86
2022/02/25 11:07:54;;;;;;;5.55;3.55;;;;;;;3.34;65.87;97395.07;1800369;77;25760;-83
2022/02/25 11:10:25;;;;;;;11.18;5.75;;;;;;;3.41;65.65;97397.89;1815407;77;29083;-85
2022/02/25 11:12:54;;;;;;;5.67;4.03;;;;;;;3.46;65.40;97396.91;1813546;77;25418;-84
2022/02/25 11:15:25;;;;;;;8.48;4.87;;;;;;;3.46;65.23;97392.90;1811893;77;25789;-83
2022/02/25 11:17:53;;;;;;;7.63;3.53;;;;;;;3.50;65.17;97403.05;1810263;78;25783;-83
2022/02/25 11:20:23;;;;;;;3.98;3.55;;;;;;;3.49;64.95;97400.58;1815363;77;25774;-85
2022/02/25 11:22:59;;;;;;;7.30;4.58;;;;;;;3.52;65.01;97403.73;1816578;77;28112;-86
2022/02/25 11:25:27;;;;;;;7.72;4.70;;;;;;;3.52;64.80;97405.06;1811943;77;25739;-83
2022/02/25 11:27:55;;;;;;;6.62;4.00;;;;;;;3.50;64.85;97404.39;1816572;77;26406;-85
2022/02/25 11:30:58;;;;;;;6.30;3.77;;;;;;;3.52;64.89;97405.06;1807877;78;25841;-85
2022/02/25 11:33:26;;;;;;;6.97;4.45;;;;;;;3.47;64.98;97403.91;1822521;77;26255;-84
2022/02/25 11:35:59;;;;;;;8.23;5.37;;;;;;;3.47;65.24;97400.74;1825281;77;27422;-84
2022/02/25 11:38:44;;;;;;;9.70;4.92;;;;;;;3.51;65.25;97397.22;1817097;78;25926;-85
2022/02/25 11:41:24;;;;;;;8.10;5.10;;;;;;;3.49;65.03;97406.75;1818293;77;25831;-84
2022/02/25 11:43:57;;;;;;;7.75;4.95;;;;;;;3.50;65.32;97401.72;1807374;77;25739;-86
2022/02/25 11:46:32;;;;;;;7.35;4.55;;;;;;;3.62;65.54;97406.25;1789404;78;25608;-83
2022/02/25 11:49:12;;;;;;;8.20;5.15;;;;;;;3.76;65.59;97400.20;1806695;77;27371;-87